Saint Peters, Pennsylvania
Current Conditions -  °F | °C
As of 12:16 AM on Thursday 23 Oct 2014 (Local Time) from KPTW Reporting Station
Overcast Overcast  
Wind Chill: 52°   Ceiling: 4600
Heat Index: 52°   Visibility: 10mi
Dew Point: 45°   Wind: 14mph
Humidity: 77%   Direction: 340°NNW
Pressure: 29.83"   Gusts: 25mph
Location:  40.18°N, 75.73°W
Report Text: KPTW 230416Z AUTO 34012G22KT 10SM SCT026 OVC046 11/07 A2983 RMK AO2 PK WND 36029/0400 T01110072
Loading
Personal Weather Stations






























Interactive Weather Map
Tropical Storm Tracking
New forecast layout! Learn more

10-Day Weather Forecast

Advertisements
Track Severe Weather on mobile